sensor_id;sensor_type;location;lat;lon;timestamp;P1;durP1;ratioP1;P2;durP2;ratioP2
48987;SDS011;34799;51.440;-2.534;2023-01-28T00:02:04;25.55;;;10.60;;
48987;SDS011;34799;51.440;-2.534;2023-01-28T00:04:31;22.15;;;11.32;;
48987;SDS011;34799;51.440;-2.534;2023-01-28T00:07:00;23.83;;;11.55;;
48987;SDS011;34799;51.440;-2.534;2023-01-28T00:09:28;23.30;;;11.23;;
48987;SDS011;34799;51.440;-2.534;2023-01-28T00:11:55;23.27;;;11.50;;
48987;SDS011;34799;51.440;-2.534;2023-01-28T00:14:22;20.67;;;10.88;;
48987;SDS011;34799;51.440;-2.534;2023-01-28T00:16:49;21.98;;;11.18;;
48987;SDS011;34799;51.440;-2.534;2023-01-28T00:19:18;20.98;;;10.23;;
48987;SDS011;34799;51.440;-2.534;2023-01-28T00:21:45;28.60;;;12.55;;
48987;SDS011;34799;51.440;-2.534;2023-01-28T00:24:12;24.23;;;11.25;;
48987;SDS011;34799;51.440;-2.534;2023-01-28T00:26:39;19.35;;;10.23;;
48987;SDS011;34799;51.440;-2.534;2023-01-28T00:29:06;21.52;;;9.95;;
48987;SDS011;34799;51.440;-2.534;2023-01-28T00:31:36;27.25;;;11.00;;
48987;SDS011;34799;51.440;-2.534;2023-01-28T00:34:03;25.15;;;11.90;;
48987;SDS011;34799;51.440;-2.534;2023-01-28T00:36:30;23.05;;;9.68;;
48987;SDS011;34799;51.440;-2.534;2023-01-28T00:38:58;20.73;;;10.07;;
48987;SDS011;34799;51.440;-2.534;2023-01-28T00:41:27;22.38;;;8.77;;
48987;SDS011;34799;51.440;-2.534;2023-01-28T00:43:57;20.00;;;9.15;;
48987;SDS011;34799;51.440;-2.534;2023-01-28T00:46:24;17.60;;;7.32;;
48987;SDS011;34799;51.440;-2.534;2023-01-28T00:48:52;24.40;;;8.40;;
48987;SDS011;34799;51.440;-2.534;2023-01-28T00:51:21;21.55;;;8.20;;
48987;SDS011;34799;51.440;-2.534;2023-01-28T00:53:48;18.85;;;8.63;;
48987;SDS011;34799;51.440;-2.534;2023-01-28T00:56:16;20.35;;;8.82;;
48987;SDS011;34799;51.440;-2.534;2023-01-28T00:58:44;19.30;;;8.35;;
48987;SDS011;34799;51.440;-2.534;2023-01-28T01:01:14;18.55;;;8.13;;
48987;SDS011;34799;51.440;-2.534;2023-01-28T01:03:43;20.48;;;8.05;;
48987;SDS011;34799;51.440;-2.534;2023-01-28T01:06:11;19.38;;;8.57;;
48987;SDS011;34799;51.440;-2.534;2023-01-28T01:08:40;23.20;;;9.48;;
48987;SDS011;34799;51.440;-2.534;2023-01-28T01:11:09;22.13;;;9.00;;
48987;SDS011;34799;51.440;-2.534;2023-01-28T01:13:37;18.70;;;8.60;;
48987;SDS011;34799;51.440;-2.534;2023-01-28T01:18:35;21.40;;;8.05;;
48987;SDS011;34799;51.440;-2.534;2023-01-28T01:21:06;19.05;;;9.10;;
48987;SDS011;34799;51.440;-2.534;2023-01-28T01:23:34;22.13;;;9.20;;
48987;SDS011;34799;51.440;-2.534;2023-01-28T01:26:02;22.23;;;8.15;;
48987;SDS011;34799;51.440;-2.534;2023-01-28T01:28:30;17.02;;;8.10;;
48987;SDS011;34799;51.440;-2.534;2023-01-28T01:31:04;19.08;;;8.05;;
48987;SDS011;34799;51.440;-2.534;2023-01-28T01:33:33;20.45;;;8.32;;
48987;SDS011;34799;51.440;-2.534;2023-01-28T01:36:01;17.05;;;8.70;;
48987;SDS011;34799;51.440;-2.534;2023-01-28T01:38:29;17.60;;;8.50;;
48987;SDS011;34799;51.440;-2.534;2023-01-28T01:40:56;21.27;;;8.95;;
48987;SDS011;34799;51.440;-2.534;2023-01-28T01:46:16;21.45;;;9.13;;
48987;SDS011;34799;51.440;-2.534;2023-01-28T01:48:47;19.88;;;9.55;;
48987;SDS011;34799;51.440;-2.534;2023-01-28T01:51:16;19.40;;;9.65;;
48987;SDS011;34799;51.440;-2.534;2023-01-28T01:53:48;16.98;;;9.63;;
48987;SDS011;34799;51.440;-2.534;2023-01-28T01:56:20;18.65;;;9.70;;
48987;SDS011;34799;51.440;-2.534;2023-01-28T01:58:54;19.43;;;10.20;;
48987;SDS011;34799;51.440;-2.534;2023-01-28T02:01:25;20.23;;;9.82;;
48987;SDS011;34799;51.440;-2.534;2023-01-28T02:03:58;21.27;;;10.25;;
48987;SDS011;34799;51.440;-2.534;2023-01-28T02:06:35;21.88;;;10.25;;
48987;SDS011;34799;51.440;-2.534;2023-01-28T02:09:24;24.85;;;10.20;;
48987;SDS011;34799;51.440;-2.534;2023-01-28T02:11:58;23.92;;;10.90;;
48987;SDS011;34799;51.440;-2.534;2023-01-28T02:14:56;22.95;;;9.60;;
48987;SDS011;34799;51.440;-2.534;2023-01-28T02:17:30;17.95;;;9.23;;
48987;SDS011;34799;51.440;-2.534;2023-01-28T02:20:07;19.13;;;9.50;;
48987;SDS011;34799;51.440;-2.534;2023-01-28T02:30:34;23.27;;;9.35;;
48987;SDS011;34799;51.440;-2.534;2023-01-28T02:33:20;18.38;;;9.57;;
48987;SDS011;34799;51.440;-2.534;2023-01-28T02:36:05;19.52;;;9.82;;
48987;SDS011;34799;51.440;-2.534;2023-01-28T02:38:48;19.50;;;9.75;;
48987;SDS011;34799;51.440;-2.534;2023-01-28T02:41:23;24.13;;;9.52;;
48987;SDS011;34799;51.440;-2.534;2023-01-28T02:43:56;19.92;;;9.85;;
48987;SDS011;34799;51.440;-2.534;2023-01-28T02:49:15;18.58;;;9.50;;
48987;SDS011;34799;51.440;-2.534;2023-01-28T02:54:37;21.70;;;9.88;;
48987;SDS011;34799;51.440;-2.534;2023-01-28T03:00:58;19.77;;;9.30;;
48987;SDS011;34799;51.440;-2.534;2023-01-28T03:03:21;21.58;;;9.43;;
48987;SDS011;34799;51.440;-2.534;2023-01-28T03:06:06;21.05;;;9.32;;
48987;SDS011;34799;51.440;-2.534;2023-01-28T03:11:41;20.20;;;9.68;;
48987;SDS011;34799;51.440;-2.534;2023-01-28T03:14:31;22.13;;;9.18;;
48987;SDS011;34799;51.440;-2.534;2023-01-28T03:17:27;19.33;;;9.45;;
48987;SDS011;34799;51.440;-2.534;2023-01-28T03:20:18;22.70;;;10.10;;
48987;SDS011;34799;51.440;-2.534;2023-01-28T03:23:09;20.40;;;8.52;;
48987;SDS011;34799;51.440;-2.534;2023-01-28T03:25:59;19.58;;;9.15;;
48987;SDS011;34799;51.440;-2.534;2023-01-28T03:28:48;17.15;;;8.07;;
48987;SDS011;34799;51.440;-2.534;2023-01-28T03:31:34;17.15;;;7.47;;
48987;SDS011;34799;51.440;-2.534;2023-01-28T03:34:23;16.95;;;7.75;;
48987;SDS011;34799;51.440;-2.534;2023-01-28T03:37:08;15.20;;;7.28;;
48987;SDS011;34799;51.440;-2.534;2023-01-28T03:39:48;16.63;;;7.57;;
48987;SDS011;34799;51.440;-2.534;2023-01-28T03:42:17;16.70;;;8.10;;
48987;SDS011;34799;51.440;-2.534;2023-01-28T03:44:53;17.52;;;7.63;;
48987;SDS011;34799;51.440;-2.534;2023-01-28T03:47:22;16.45;;;7.78;;
48987;SDS011;34799;51.440;-2.534;2023-01-28T03:49:53;18.90;;;7.78;;
48987;SDS011;34799;51.440;-2.534;2023-01-28T03:52:23;17.63;;;7.65;;
48987;SDS011;34799;51.440;-2.534;2023-01-28T03:55:16;20.48;;;8.55;;
48987;SDS011;34799;51.440;-2.534;2023-01-28T03:57:43;19.55;;;7.90;;
48987;SDS011;34799;51.440;-2.534;2023-01-28T04:00:13;17.80;;;7.25;;
48987;SDS011;34799;51.440;-2.534;2023-01-28T04:02:43;16.52;;;7.68;;
48987;SDS011;34799;51.440;-2.534;2023-01-28T04:05:14;32.80;;;9.88;;
48987;SDS011;34799;51.440;-2.534;2023-01-28T04:07:49;25.77;;;9.02;;
48987;SDS011;34799;51.440;-2.534;2023-01-28T04:11:00;17.35;;;8.70;;
48987;SDS011;34799;51.440;-2.534;2023-01-28T04:13:45;24.88;;;9.88;;
48987;SDS011;34799;51.440;-2.534;2023-01-28T04:16:14;19.02;;;8.77;;
48987;SDS011;34799;51.440;-2.534;2023-01-28T04:18:44;19.48;;;8.85;;
48987;SDS011;34799;51.440;-2.534;2023-01-28T04:21:12;20.13;;;8.75;;
48987;SDS011;34799;51.440;-2.534;2023-01-28T04:23:39;17.00;;;8.27;;
48987;SDS011;34799;51.440;-2.534;2023-01-28T04:26:08;20.77;;;8.65;;
48987;SDS011;34799;51.440;-2.534;2023-01-28T04:28:37;18.38;;;8.50;;
48987;SDS011;34799;51.440;-2.534;2023-01-28T04:31:04;17.48;;;8.65;;
48987;SDS011;34799;51.440;-2.534;2023-01-28T04:33:34;18.65;;;9.00;;
48987;SDS011;34799;51.440;-2.534;2023-01-28T04:36:13;24.98;;;8.40;;
48987;SDS011;34799;51.440;-2.534;2023-01-28T04:38:58;21.55;;;9.57;;
48987;SDS011;34799;51.440;-2.534;2023-01-28T04:41:51;18.42;;;8.63;;
48987;SDS011;34799;51.440;-2.534;2023-01-28T04:44:26;20.30;;;8.40;;
48987;SDS011;34799;51.440;-2.534;2023-01-28T04:47:20;16.63;;;8.75;;
48987;SDS011;34799;51.440;-2.534;2023-01-28T04:50:13;20.08;;;8.40;;
48987;SDS011;34799;51.440;-2.534;2023-01-28T04:53:05;16.98;;;7.88;;
48987;SDS011;34799;51.440;-2.534;2023-01-28T04:55:50;20.38;;;8.70;;
48987;SDS011;34799;51.440;-2.534;2023-01-28T04:58:17;20.70;;;9.70;;
48987;SDS011;34799;51.440;-2.534;2023-01-28T05:00:46;16.45;;;8.15;;
48987;SDS011;34799;51.440;-2.534;2023-01-28T05:03:17;21.20;;;8.68;;
48987;SDS011;34799;51.440;-2.534;2023-01-28T05:05:44;23.92;;;8.90;;
48987;SDS011;34799;51.440;-2.534;2023-01-28T05:08:22;19.42;;;8.63;;
48987;SDS011;34799;51.440;-2.534;2023-01-28T05:10:50;17.73;;;8.68;;
48987;SDS011;34799;51.440;-2.534;2023-01-28T05:13:17;22.02;;;8.60;;
48987;SDS011;34799;51.440;-2.534;2023-01-28T05:15:49;17.00;;;8.68;;
48987;SDS011;34799;51.440;-2.534;2023-01-28T05:18:19;14.73;;;7.50;;
48987;SDS011;34799;51.440;-2.534;2023-01-28T05:20:59;15.43;;;7.70;;
48987;SDS011;34799;51.440;-2.534;2023-01-28T05:23:26;15.48;;;8.05;;
48987;SDS011;34799;51.440;-2.534;2023-01-28T05:25:55;26.35;;;9.00;;
48987;SDS011;34799;51.440;-2.534;2023-01-28T05:28:23;18.02;;;8.90;;
48987;SDS011;34799;51.440;-2.534;2023-01-28T05:30:50;21.30;;;8.88;;
48987;SDS011;34799;51.440;-2.534;2023-01-28T05:33:17;20.80;;;8.93;;
48987;SDS011;34799;51.440;-2.534;2023-01-28T05:35:44;27.42;;;8.77;;
48987;SDS011;34799;51.440;-2.534;2023-01-28T05:38:11;18.90;;;8.10;;
48987;SDS011;34799;51.440;-2.534;2023-01-28T05:40:40;20.70;;;8.48;;
48987;SDS011;34799;51.440;-2.534;2023-01-28T05:43:08;15.55;;;7.70;;
48987;SDS011;34799;51.440;-2.534;2023-01-28T05:45:43;19.90;;;7.75;;
48987;SDS011;34799;51.440;-2.534;2023-01-28T05:48:15;23.63;;;8.63;;
48987;SDS011;34799;51.440;-2.534;2023-01-28T05:51:01;16.40;;;8.25;;
48987;SDS011;34799;51.440;-2.534;2023-01-28T05:53:36;17.33;;;8.25;;
48987;SDS011;34799;51.440;-2.534;2023-01-28T05:56:04;19.65;;;9.35;;
48987;SDS011;34799;51.440;-2.534;2023-01-28T05:58:35;16.60;;;8.38;;
48987;SDS011;34799;51.440;-2.534;2023-01-28T06:01:03;18.90;;;8.35;;
48987;SDS011;34799;51.440;-2.534;2023-01-28T06:03:40;19.92;;;9.43;;
48987;SDS011;34799;51.440;-2.534;2023-01-28T06:06:08;18.92;;;8.90;;
48987;SDS011;34799;51.440;-2.534;2023-01-28T06:08:36;17.35;;;8.65;;
48987;SDS011;34799;51.440;-2.534;2023-01-28T06:11:03;18.33;;;8.30;;
48987;SDS011;34799;51.440;-2.534;2023-01-28T06:13:34;18.77;;;7.82;;
48987;SDS011;34799;51.440;-2.534;2023-01-28T06:16:23;23.35;;;9.23;;
48987;SDS011;34799;51.440;-2.534;2023-01-28T06:19:09;17.35;;;8.48;;
48987;SDS011;34799;51.440;-2.534;2023-01-28T06:21:36;15.30;;;8.90;;
48987;SDS011;34799;51.440;-2.534;2023-01-28T06:24:03;18.38;;;8.10;;
48987;SDS011;34799;51.440;-2.534;2023-01-28T06:26:31;17.05;;;7.80;;
48987;SDS011;34799;51.440;-2.534;2023-01-28T06:28:59;16.42;;;8.27;;
48987;SDS011;34799;51.440;-2.534;2023-01-28T06:31:25;16.52;;;7.97;;
48987;SDS011;34799;51.440;-2.534;2023-01-28T06:33:52;13.85;;;7.68;;
48987;SDS011;34799;51.440;-2.534;2023-01-28T06:36:20;18.75;;;8.45;;
48987;SDS011;34799;51.440;-2.534;2023-01-28T06:38:47;18.60;;;8.48;;
48987;SDS011;34799;51.440;-2.534;2023-01-28T06:41:14;18.00;;;8.45;;
48987;SDS011;34799;51.440;-2.534;2023-01-28T06:43:41;16.65;;;7.90;;
48987;SDS011;34799;51.440;-2.534;2023-01-28T06:46:08;18.38;;;8.13;;
48987;SDS011;34799;51.440;-2.534;2023-01-28T06:48:36;19.08;;;8.48;;
48987;SDS011;34799;51.440;-2.534;2023-01-28T06:51:03;19.40;;;8.45;;
48987;SDS011;34799;51.440;-2.534;2023-01-28T06:53:30;18.70;;;8.57;;
48987;SDS011;34799;51.440;-2.534;2023-01-28T06:55:57;21.25;;;9.20;;
48987;SDS011;34799;51.440;-2.534;2023-01-28T06:58:24;17.92;;;8.63;;
48987;SDS011;34799;51.440;-2.534;2023-01-28T07:00:52;18.10;;;8.68;;
48987;SDS011;34799;51.440;-2.534;2023-01-28T07:03:19;15.35;;;8.32;;
48987;SDS011;34799;51.440;-2.534;2023-01-28T07:05:46;18.05;;;8.40;;
48987;SDS011;34799;51.440;-2.534;2023-01-28T07:08:13;19.20;;;8.77;;
48987;SDS011;34799;51.440;-2.534;2023-01-28T07:10:40;17.02;;;8.45;;
48987;SDS011;34799;51.440;-2.534;2023-01-28T07:13:07;22.23;;;9.10;;
48987;SDS011;34799;51.440;-2.534;2023-01-28T07:15:36;17.23;;;7.93;;
48987;SDS011;34799;51.440;-2.534;2023-01-28T07:18:03;15.43;;;8.65;;
48987;SDS011;34799;51.440;-2.534;2023-01-28T07:20:30;19.48;;;8.35;;
48987;SDS011;34799;51.440;-2.534;2023-01-28T07:22:57;19.83;;;8.63;;
48987;SDS011;34799;51.440;-2.534;2023-01-28T07:25:24;21.20;;;8.10;;
48987;SDS011;34799;51.440;-2.534;2023-01-28T07:27:52;22.25;;;8.88;;
48987;SDS011;34799;51.440;-2.534;2023-01-28T07:30:20;19.60;;;9.15;;
48987;SDS011;34799;51.440;-2.534;2023-01-28T07:32:56;16.45;;;7.95;;
48987;SDS011;34799;51.440;-2.534;2023-01-28T07:35:24;24.65;;;9.60;;
48987;SDS011;34799;51.440;-2.534;2023-01-28T07:37:52;21.00;;;9.45;;
48987;SDS011;34799;51.440;-2.534;2023-01-28T07:40:24;25.58;;;9.48;;
48987;SDS011;34799;51.440;-2.534;2023-01-28T07:42:52;21.80;;;8.75;;
48987;SDS011;34799;51.440;-2.534;2023-01-28T07:45:21;19.27;;;8.77;;
48987;SDS011;34799;51.440;-2.534;2023-01-28T07:47:53;22.58;;;9.15;;
48987;SDS011;34799;51.440;-2.534;2023-01-28T07:50:25;17.05;;;8.15;;
48987;SDS011;34799;51.440;-2.534;2023-01-28T07:52:55;16.50;;;7.72;;
48987;SDS011;34799;51.440;-2.534;2023-01-28T07:55:22;19.60;;;8.70;;
48987;SDS011;34799;51.440;-2.534;2023-01-28T07:57:51;17.25;;;8.60;;
48987;SDS011;34799;51.440;-2.534;2023-01-28T08:00:23;19.60;;;8.18;;
48987;SDS011;34799;51.440;-2.534;2023-01-28T08:02:58;18.52;;;8.35;;
48987;SDS011;34799;51.440;-2.534;2023-01-28T08:05:35;18.27;;;7.70;;
48987;SDS011;34799;51.440;-2.534;2023-01-28T08:08:07;16.80;;;6.78;;
48987;SDS011;34799;51.440;-2.534;2023-01-28T08:10:36;18.92;;;8.18;;
48987;SDS011;34799;51.440;-2.534;2023-01-28T08:13:04;17.70;;;8.88;;
48987;SDS011;34799;51.440;-2.534;2023-01-28T08:15:32;16.92;;;8.68;;
48987;SDS011;34799;51.440;-2.534;2023-01-28T08:18:01;21.33;;;9.00;;
48987;SDS011;34799;51.440;-2.534;2023-01-28T08:20:30;16.90;;;8.60;;
48987;SDS011;34799;51.440;-2.534;2023-01-28T08:25:56;17.58;;;8.85;;
48987;SDS011;34799;51.440;-2.534;2023-01-28T08:28:24;22.02;;;9.63;;
48987;SDS011;34799;51.440;-2.534;2023-01-28T08:30:51;18.85;;;9.13;;
48987;SDS011;34799;51.440;-2.534;2023-01-28T08:33:19;16.17;;;7.80;;
48987;SDS011;34799;51.440;-2.534;2023-01-28T08:35:46;19.52;;;8.77;;
48987;SDS011;34799;51.440;-2.534;2023-01-28T08:38:15;16.70;;;7.60;;
48987;SDS011;34799;51.440;-2.534;2023-01-28T08:40:43;17.45;;;7.07;;
48987;SDS011;34799;51.440;-2.534;2023-01-28T08:43:10;17.85;;;7.95;;
48987;SDS011;34799;51.440;-2.534;2023-01-28T08:45:38;22.13;;;8.48;;
48987;SDS011;34799;51.440;-2.534;2023-01-28T08:48:09;19.27;;;8.75;;
48987;SDS011;34799;51.440;-2.534;2023-01-28T08:50:40;22.58;;;10.10;;
48987;SDS011;34799;51.440;-2.534;2023-01-28T08:53:12;15.80;;;7.82;;
48987;SDS011;34799;51.440;-2.534;2023-01-28T08:55:40;18.35;;;7.97;;
48987;SDS011;34799;51.440;-2.534;2023-01-28T08:58:10;15.43;;;6.85;;
48987;SDS011;34799;51.440;-2.534;2023-01-28T09:00:41;15.65;;;7.50;;
48987;SDS011;34799;51.440;-2.534;2023-01-28T09:03:10;17.77;;;8.20;;
48987;SDS011;34799;51.440;-2.534;2023-01-28T09:05:37;18.42;;;7.70;;
48987;SDS011;34799;51.440;-2.534;2023-01-28T09:08:06;17.20;;;7.55;;
48987;SDS011;34799;51.440;-2.534;2023-01-28T09:10:35;17.75;;;8.55;;
48987;SDS011;34799;51.440;-2.534;2023-01-28T09:13:08;17.73;;;8.68;;
48987;SDS011;34799;51.440;-2.534;2023-01-28T09:15:40;23.40;;;9.63;;
48987;SDS011;34799;51.440;-2.534;2023-01-28T09:18:08;20.17;;;9.23;;
48987;SDS011;34799;51.440;-2.534;2023-01-28T09:20:35;22.55;;;12.10;;
48987;SDS011;34799;51.440;-2.534;2023-01-28T09:23:04;21.83;;;10.43;;
48987;SDS011;34799;51.440;-2.534;2023-01-28T09:25:32;18.65;;;10.00;;
48987;SDS011;34799;51.440;-2.534;2023-01-28T09:28:01;18.92;;;8.52;;
48987;SDS011;34799;51.440;-2.534;2023-01-28T09:30:28;18.30;;;9.70;;
48987;SDS011;34799;51.440;-2.534;2023-01-28T09:32:57;20.60;;;9.18;;
48987;SDS011;34799;51.440;-2.534;2023-01-28T09:35:24;19.00;;;9.00;;
48987;SDS011;34799;51.440;-2.534;2023-01-28T09:37:55;21.40;;;9.05;;
48987;SDS011;34799;51.440;-2.534;2023-01-28T09:46:10;19.58;;;8.75;;
48987;SDS011;34799;51.440;-2.534;2023-01-28T09:48:44;21.58;;;8.75;;
48987;SDS011;34799;51.440;-2.534;2023-01-28T09:54:23;18.13;;;8.45;;
48987;SDS011;34799;51.440;-2.534;2023-01-28T09:56:53;17.77;;;8.48;;
48987;SDS011;34799;51.440;-2.534;2023-01-28T09:59:32;26.15;;;9.57;;
48987;SDS011;34799;51.440;-2.534;2023-01-28T10:02:03;24.10;;;10.05;;
48987;SDS011;34799;51.440;-2.534;2023-01-28T10:04:49;19.42;;;9.90;;
48987;SDS011;34799;51.440;-2.534;2023-01-28T10:10:15;18.52;;;8.90;;
48987;SDS011;34799;51.440;-2.534;2023-01-28T10:17:50;21.65;;;9.55;;
48987;SDS011;34799;51.440;-2.534;2023-01-28T10:20:37;23.63;;;8.82;;
48987;SDS011;34799;51.440;-2.534;2023-01-28T10:23:18;19.70;;;9.20;;
48987;SDS011;34799;51.440;-2.534;2023-01-28T10:25:49;19.50;;;8.57;;
48987;SDS011;34799;51.440;-2.534;2023-01-28T10:28:20;18.48;;;8.07;;
48987;SDS011;34799;51.440;-2.534;2023-01-28T10:30:55;16.55;;;8.95;;
48987;SDS011;34799;51.440;-2.534;2023-01-28T10:33:27;19.55;;;8.98;;
48987;SDS011;34799;51.440;-2.534;2023-01-28T10:36:01;19.02;;;8.85;;
48987;SDS011;34799;51.440;-2.534;2023-01-28T10:38:29;16.40;;;7.68;;
48987;SDS011;34799;51.440;-2.534;2023-01-28T10:40:59;17.98;;;9.20;;
48987;SDS011;34799;51.440;-2.534;2023-01-28T10:43:31;19.17;;;9.43;;
48987;SDS011;34799;51.440;-2.534;2023-01-28T10:48:44;19.35;;;9.48;;
48987;SDS011;34799;51.440;-2.534;2023-01-28T10:51:32;10.65;;;5.15;;
48987;SDS011;34799;51.440;-2.534;2023-01-28T10:54:01;10.70;;;4.13;;
48987;SDS011;34799;51.440;-2.534;2023-01-28T10:56:30;6.32;;;2.80;;
48987;SDS011;34799;51.440;-2.534;2023-01-28T10:59:02;6.80;;;2.88;;
48987;SDS011;34799;51.440;-2.534;2023-01-28T11:01:47;5.45;;;2.90;;
48987;SDS011;34799;51.440;-2.534;2023-01-28T11:04:24;10.75;;;3.50;;
48987;SDS011;34799;51.440;-2.534;2023-01-28T11:06:57;5.88;;;3.30;;
48987;SDS011;34799;51.440;-2.534;2023-01-28T11:09:30;6.03;;;2.42;;
48987;SDS011;34799;51.440;-2.534;2023-01-28T11:12:12;7.15;;;2.47;;
48987;SDS011;34799;51.440;-2.534;2023-01-28T11:14:54;5.15;;;2.90;;
48987;SDS011;34799;51.440;-2.534;2023-01-28T11:17:36;5.68;;;2.60;;
48987;SDS011;34799;51.440;-2.534;2023-01-28T11:20:09;5.75;;;2.40;;
48987;SDS011;34799;51.440;-2.534;2023-01-28T11:22:47;8.98;;;3.08;;
48987;SDS011;34799;51.440;-2.534;2023-01-28T11:27:50;5.97;;;2.95;;
48987;SDS011;34799;51.440;-2.534;2023-01-28T11:35:40;6.10;;;2.65;;
48987;SDS011;34799;51.440;-2.534;2023-01-28T11:38:16;9.88;;;2.60;;
48987;SDS011;34799;51.440;-2.534;2023-01-28T11:40:48;10.13;;;2.35;;
48987;SDS011;34799;51.440;-2.534;2023-01-28T11:43:21;10.10;;;3.75;;
48987;SDS011;34799;51.440;-2.534;2023-01-28T11:51:41;5.75;;;2.92;;
48987;SDS011;34799;51.440;-2.534;2023-01-28T12:06:03;7.72;;;2.60;;
48987;SDS011;34799;51.440;-2.534;2023-01-28T12:08:40;11.32;;;3.80;;
48987;SDS011;34799;51.440;-2.534;2023-01-28T12:25:34;8.70;;;3.88;;
48987;SDS011;34799;51.440;-2.534;2023-01-28T12:39:38;7.20;;;3.70;;
48987;SDS011;34799;51.440;-2.534;2023-01-28T12:41:53;9.02;;;4.30;;
48987;SDS011;34799;51.440;-2.534;2023-01-28T12:47:01;11.07;;;3.88;;
48987;SDS011;34799;51.440;-2.534;2023-01-28T12:49:39;14.55;;;5.15;;
48987;SDS011;34799;51.440;-2.534;2023-01-28T12:52:19;12.50;;;4.90;;
48987;SDS011;34799;51.440;-2.534;2023-01-28T12:55:05;14.20;;;5.38;;
48987;SDS011;34799;51.440;-2.534;2023-01-28T12:57:44;14.43;;;5.80;;
48987;SDS011;34799;51.440;-2.534;2023-01-28T13:02:54;11.40;;;5.07;;
48987;SDS011;34799;51.440;-2.534;2023-01-28T13:05:49;8.88;;;4.13;;
48987;SDS011;34799;51.440;-2.534;2023-01-28T13:08:24;10.23;;;4.20;;
48987;SDS011;34799;51.440;-2.534;2023-01-28T13:10:53;12.52;;;4.75;;
48987;SDS011;34799;51.440;-2.534;2023-01-28T13:15:56;10.85;;;4.50;;
48987;SDS011;34799;51.440;-2.534;2023-01-28T13:24:04;9.15;;;3.47;;
48987;SDS011;34799;51.440;-2.534;2023-01-28T13:31:55;14.48;;;4.55;;
48987;SDS011;34799;51.440;-2.534;2023-01-28T13:34:28;9.82;;;4.30;;
48987;SDS011;34799;51.440;-2.534;2023-01-28T13:40:07;7.80;;;3.38;;
48987;SDS011;34799;51.440;-2.534;2023-01-28T13:45:58;17.08;;;3.80;;
48987;SDS011;34799;51.440;-2.534;2023-01-28T13:48:50;10.25;;;4.05;;
48987;SDS011;34799;51.440;-2.534;2023-01-28T14:07:34;7.07;;;3.05;;
48987;SDS011;34799;51.440;-2.534;2023-01-28T14:15:27;9.05;;;3.10;;
48987;SDS011;34799;51.440;-2.534;2023-01-28T14:18:14;8.05;;;2.72;;
48987;SDS011;34799;51.440;-2.534;2023-01-28T14:21:00;9.90;;;3.13;;
48987;SDS011;34799;51.440;-2.534;2023-01-28T14:23:29;8.70;;;3.15;;
48987;SDS011;34799;51.440;-2.534;2023-01-28T14:26:03;8.63;;;3.20;;
48987;SDS011;34799;51.440;-2.534;2023-01-28T14:28:59;13.30;;;3.55;;
48987;SDS011;34799;51.440;-2.534;2023-01-28T14:31:35;7.45;;;2.80;;
48987;SDS011;34799;51.440;-2.534;2023-01-28T14:34:27;9.25;;;3.28;;
48987;SDS011;34799;51.440;-2.534;2023-01-28T14:36:57;12.55;;;4.18;;
48987;SDS011;34799;51.440;-2.534;2023-01-28T14:39:29;13.40;;;4.35;;
48987;SDS011;34799;51.440;-2.534;2023-01-28T14:42:13;10.32;;;3.08;;
48987;SDS011;34799;51.440;-2.534;2023-01-28T14:44:48;7.53;;;2.97;;
48987;SDS011;34799;51.440;-2.534;2023-01-28T14:59:27;9.55;;;3.22;;
48987;SDS011;34799;51.440;-2.534;2023-01-28T15:02:42;8.90;;;3.25;;
48987;SDS011;34799;51.440;-2.534;2023-01-28T15:05:07;7.13;;;3.88;;
48987;SDS011;34799;51.440;-2.534;2023-01-28T15:07:37;10.73;;;3.30;;
48987;SDS011;34799;51.440;-2.534;2023-01-28T15:13:08;10.02;;;3.22;;
48987;SDS011;34799;51.440;-2.534;2023-01-28T15:15:44;13.32;;;3.70;;
48987;SDS011;34799;51.440;-2.534;2023-01-28T15:18:16;11.38;;;4.13;;
48987;SDS011;34799;51.440;-2.534;2023-01-28T15:20:47;8.35;;;3.75;;
48987;SDS011;34799;51.440;-2.534;2023-01-28T15:23:19;10.50;;;4.10;;
48987;SDS011;34799;51.440;-2.534;2023-01-28T15:25:52;7.35;;;3.50;;
48987;SDS011;34799;51.440;-2.534;2023-01-28T15:28:27;12.05;;;4.47;;
48987;SDS011;34799;51.440;-2.534;2023-01-28T15:30:57;10.05;;;3.47;;
48987;SDS011;34799;51.440;-2.534;2023-01-28T15:33:25;8.38;;;4.03;;
48987;SDS011;34799;51.440;-2.534;2023-01-28T15:35:54;7.40;;;3.38;;
48987;SDS011;34799;51.440;-2.534;2023-01-28T15:38:24;8.38;;;3.20;;
48987;SDS011;34799;51.440;-2.534;2023-01-28T15:40:55;9.15;;;4.20;;
48987;SDS011;34799;51.440;-2.534;2023-01-28T15:43:25;6.53;;;3.08;;
48987;SDS011;34799;51.440;-2.534;2023-01-28T15:46:08;19.48;;;3.47;;
48987;SDS011;34799;51.440;-2.534;2023-01-28T15:48:58;7.90;;;3.33;;
48987;SDS011;34799;51.440;-2.534;2023-01-28T15:51:29;10.85;;;3.92;;
48987;SDS011;34799;51.440;-2.534;2023-01-28T15:54:08;12.57;;;3.65;;
48987;SDS011;34799;51.440;-2.534;2023-01-28T15:56:36;6.88;;;3.20;;
48987;SDS011;34799;51.440;-2.534;2023-01-28T16:05:05;7.22;;;3.33;;
48987;SDS011;34799;51.440;-2.534;2023-01-28T16:07:43;10.93;;;3.42;;
48987;SDS011;34799;51.440;-2.534;2023-01-28T16:10:18;13.32;;;3.75;;
48987;SDS011;34799;51.440;-2.534;2023-01-28T16:13:05;11.50;;;3.70;;
48987;SDS011;34799;51.440;-2.534;2023-01-28T16:15:46;7.63;;;3.33;;
48987;SDS011;34799;51.440;-2.534;2023-01-28T16:18:23;8.90;;;3.72;;
48987;SDS011;34799;51.440;-2.534;2023-01-28T16:20:53;8.85;;;4.15;;
48987;SDS011;34799;51.440;-2.534;2023-01-28T16:23:21;8.45;;;3.95;;
48987;SDS011;34799;51.440;-2.534;2023-01-28T16:26:00;9.98;;;3.80;;
48987;SDS011;34799;51.440;-2.534;2023-01-28T16:28:32;8.13;;;3.40;;
48987;SDS011;34799;51.440;-2.534;2023-01-28T16:30:59;8.35;;;3.88;;
48987;SDS011;34799;51.440;-2.534;2023-01-28T16:33:28;8.75;;;4.20;;
48987;SDS011;34799;51.440;-2.534;2023-01-28T16:35:56;8.75;;;3.40;;
48987;SDS011;34799;51.440;-2.534;2023-01-28T16:38:33;13.35;;;5.05;;
48987;SDS011;34799;51.440;-2.534;2023-01-28T16:41:00;12.00;;;5.15;;
48987;SDS011;34799;51.440;-2.534;2023-01-28T16:43:27;10.88;;;4.85;;
48987;SDS011;34799;51.440;-2.534;2023-01-28T16:45:55;11.45;;;3.88;;
48987;SDS011;34799;51.440;-2.534;2023-01-28T16:48:23;9.23;;;4.05;;
48987;SDS011;34799;51.440;-2.534;2023-01-28T16:50:50;8.57;;;4.10;;
48987;SDS011;34799;51.440;-2.534;2023-01-28T16:53:19;8.30;;;3.90;;
48987;SDS011;34799;51.440;-2.534;2023-01-28T16:55:52;11.75;;;4.07;;
48987;SDS011;34799;51.440;-2.534;2023-01-28T16:58:21;8.15;;;4.07;;
48987;SDS011;34799;51.440;-2.534;2023-01-28T17:00:51;11.02;;;4.80;;
48987;SDS011;34799;51.440;-2.534;2023-01-28T17:03:19;11.38;;;4.53;;
48987;SDS011;34799;51.440;-2.534;2023-01-28T17:05:46;11.50;;;4.75;;
48987;SDS011;34799;51.440;-2.534;2023-01-28T17:08:13;8.60;;;4.28;;
48987;SDS011;34799;51.440;-2.534;2023-01-28T17:10:40;11.90;;;3.85;;
48987;SDS011;34799;51.440;-2.534;2023-01-28T17:13:08;8.80;;;3.97;;
48987;SDS011;34799;51.440;-2.534;2023-01-28T17:15:36;10.35;;;4.88;;
48987;SDS011;34799;51.440;-2.534;2023-01-28T17:18:03;9.57;;;4.63;;
48987;SDS011;34799;51.440;-2.534;2023-01-28T17:20:36;10.75;;;4.60;;
48987;SDS011;34799;51.440;-2.534;2023-01-28T17:23:06;12.52;;;4.57;;
48987;SDS011;34799;51.440;-2.534;2023-01-28T17:25:37;12.45;;;4.50;;
48987;SDS011;34799;51.440;-2.534;2023-01-28T17:28:05;14.77;;;5.97;;
48987;SDS011;34799;51.440;-2.534;2023-01-28T17:30:33;10.60;;;4.65;;
48987;SDS011;34799;51.440;-2.534;2023-01-28T17:33:07;12.27;;;5.47;;
48987;SDS011;34799;51.440;-2.534;2023-01-28T17:35:34;12.30;;;4.97;;
48987;SDS011;34799;51.440;-2.534;2023-01-28T17:38:02;13.52;;;4.68;;
48987;SDS011;34799;51.440;-2.534;2023-01-28T17:40:31;13.23;;;6.28;;
48987;SDS011;34799;51.440;-2.534;2023-01-28T17:42:58;12.80;;;4.63;;